createdAt,value
2022-12-22T00:02:22.734Z,2.35
2022-12-22T00:05:08.229Z,2.18
2022-12-22T00:07:54.099Z,2.19
2022-12-22T00:10:39.607Z,2.39
2022-12-22T00:13:29.742Z,2.45
2022-12-22T00:16:15.215Z,2.41
2022-12-22T00:19:00.556Z,2.35
2022-12-22T00:21:49.148Z,2.36
2022-12-22T00:24:34.775Z,2.36
2022-12-22T00:27:20.043Z,2.33
2022-12-22T00:30:05.404Z,2.31
2022-12-22T00:32:54.259Z,2.38
2022-12-22T00:35:43.294Z,2.55
2022-12-22T00:38:34.568Z,2.48
2022-12-22T00:41:20.784Z,2.41
2022-12-22T00:44:06.523Z,2.40
2022-12-22T00:46:55.602Z,2.34
2022-12-22T00:49:44.198Z,2.34
2022-12-22T00:52:30.913Z,2.24
2022-12-22T00:55:17.191Z,2.32
2022-12-22T00:58:03.159Z,2.49
2022-12-22T01:00:48.716Z,2.45
2022-12-22T01:03:34.292Z,2.48
2022-12-22T01:06:21.280Z,2.45
2022-12-22T01:09:07.469Z,2.39
2022-12-22T01:11:53.831Z,2.30
2022-12-22T01:14:39.343Z,2.24
2022-12-22T01:17:24.676Z,2.32
2022-12-22T01:20:09.991Z,2.53
2022-12-22T01:22:55.311Z,2.46
2022-12-22T01:25:40.815Z,2.41
2022-12-22T01:28:32.937Z,2.39
2022-12-22T01:31:47.162Z,2.23
2022-12-22T01:34:32.803Z,2.34
2022-12-22T01:37:18.474Z,2.42
2022-12-22T01:40:03.822Z,2.50
2022-12-22T01:42:53.086Z,2.39
2022-12-22T01:45:40.880Z,2.48
2022-12-22T01:48:30.701Z,2.39
2022-12-22T01:51:19.495Z,2.37
2022-12-22T01:54:05.130Z,2.34
2022-12-22T01:56:51.856Z,2.16
2022-12-22T01:59:37.602Z,2.28
2022-12-22T02:02:27.291Z,2.46
2022-12-22T02:05:15.770Z,2.50
2022-12-22T02:08:30.599Z,2.47
2022-12-22T02:11:37.109Z,2.50
2022-12-22T02:14:29.931Z,2.50
2022-12-22T02:17:18.790Z,2.51
2022-12-22T02:20:22.150Z,2.37
2022-12-22T02:23:28.804Z,2.45
2022-12-22T02:26:18.361Z,2.65
2022-12-22T02:29:06.236Z,2.61
2022-12-22T02:31:56.962Z,2.63
2022-12-22T02:34:42.137Z,2.60
2022-12-22T02:37:40.613Z,2.62
2022-12-22T02:40:52.101Z,2.63
2022-12-22T02:44:20.183Z,2.50
2022-12-22T02:47:08.344Z,2.55
2022-12-22T02:50:49.044Z,2.66
2022-12-22T02:53:38.246Z,2.68
2022-12-22T02:56:27.006Z,2.61
2022-12-22T02:59:13.226Z,2.60
2022-12-22T03:02:03.191Z,2.59
2022-12-22T03:04:48.817Z,2.71
2022-12-22T03:07:34.634Z,2.59
2022-12-22T03:10:20.192Z,2.49
2022-12-22T03:13:05.496Z,2.58
2022-12-22T03:15:50.850Z,2.68
2022-12-22T03:18:36.792Z,2.61
2022-12-22T03:21:22.404Z,2.59
2022-12-22T03:24:08.074Z,2.49
2022-12-22T03:26:35.107Z,2.54
2022-12-22T03:29:02.057Z,2.55
2022-12-22T03:31:29.052Z,2.45
2022-12-22T03:33:55.981Z,2.52
2022-12-22T03:36:22.947Z,2.63
2022-12-22T03:38:49.827Z,2.72
2022-12-22T03:41:35.135Z,2.64
2022-12-22T03:44:20.759Z,2.63
2022-12-22T03:46:47.658Z,2.41
2022-12-22T03:49:14.729Z,2.41
2022-12-22T03:51:44.437Z,2.40
2022-12-22T03:54:13.832Z,2.29
2022-12-22T03:56:41.563Z,2.28
2022-12-22T03:59:09.149Z,2.30
2022-12-22T04:01:44.762Z,2.40
2022-12-22T04:04:13.291Z,2.41
2022-12-22T04:06:40.590Z,2.44
2022-12-22T04:09:07.832Z,2.27
2022-12-22T04:11:53.203Z,2.33
2022-12-22T04:14:21.530Z,2.29
2022-12-22T04:16:49.121Z,2.26
2022-12-22T04:19:16.598Z,2.35
2022-12-22T04:21:44.189Z,2.22
2022-12-22T04:24:14.321Z,2.20
2022-12-22T04:26:41.273Z,2.33
2022-12-22T04:29:08.404Z,2.52
2022-12-22T04:31:35.514Z,2.38
2022-12-22T04:34:02.532Z,2.31
2022-12-22T04:36:29.757Z,2.14
2022-12-22T04:38:56.645Z,2.31
2022-12-22T04:41:23.711Z,2.11
2022-12-22T04:43:50.673Z,2.10
2022-12-22T04:46:17.605Z,2.29
2022-12-22T04:48:44.533Z,2.13
2022-12-22T04:51:11.389Z,2.27
2022-12-22T04:53:38.367Z,2.20
2022-12-22T04:56:07.827Z,2.17
2022-12-22T04:58:35.292Z,2.16
2022-12-22T05:01:14.922Z,1.94
2022-12-22T05:03:42.047Z,1.94
2022-12-22T05:06:10.126Z,1.97
2022-12-22T05:08:37.429Z,1.92
2022-12-22T05:11:04.601Z,1.91
2022-12-22T05:13:32.073Z,1.94
2022-12-22T05:16:13.712Z,2.01
2022-12-22T05:18:42.412Z,1.99
2022-12-22T05:21:18.283Z,2.15
2022-12-22T05:23:45.909Z,2.12
2022-12-22T05:26:14.783Z,2.02
2022-12-22T05:28:43.144Z,2.06
2022-12-22T05:31:21.959Z,2.03
2022-12-22T05:33:50.047Z,1.89
2022-12-22T05:36:17.276Z,1.90
2022-12-22T05:38:45.630Z,1.92
2022-12-22T05:41:12.559Z,1.81
2022-12-22T05:46:09.715Z,1.77
2022-12-22T05:48:39.207Z,1.63
2022-12-22T05:51:09.460Z,1.73
2022-12-22T05:53:37.295Z,1.70
2022-12-22T05:56:04.701Z,1.81
2022-12-22T05:58:31.824Z,1.85
2022-12-22T06:01:00.182Z,1.92
2022-12-22T06:03:28.285Z,1.99
2022-12-22T06:05:56.058Z,2.03
2022-12-22T06:08:23.572Z,1.97
2022-12-22T06:10:51.228Z,1.97
2022-12-22T06:13:18.212Z,2.02
2022-12-22T06:15:45.198Z,1.98
2022-12-22T06:18:13.179Z,2.05
2022-12-22T06:20:40.074Z,2.13
2022-12-22T06:23:06.977Z,2.23
2022-12-22T06:25:33.955Z,2.34
2022-12-22T06:28:01.196Z,2.40
2022-12-22T06:30:33.271Z,2.46
2022-12-22T06:33:01.693Z,2.48
2022-12-22T06:35:29.024Z,2.56
2022-12-22T06:37:55.960Z,2.66
2022-12-22T06:40:23.001Z,2.74
2022-12-22T06:43:09.303Z,2.99
2022-12-22T06:45:38.609Z,3.09
2022-12-22T06:48:06.817Z,3.30
2022-12-22T06:50:34.655Z,3.35
2022-12-22T06:53:01.539Z,3.54
2022-12-22T06:55:28.472Z,3.41
2022-12-22T06:57:55.473Z,3.48
2022-12-22T07:00:22.570Z,3.75
2022-12-22T07:02:49.575Z,3.74
2022-12-22T07:05:16.838Z,3.68
2022-12-22T07:07:43.779Z,3.84
2022-12-22T07:10:11.526Z,3.70
2022-12-22T07:12:38.466Z,3.84
2022-12-22T07:15:06.398Z,3.95
2022-12-22T07:17:33.301Z,4.03
2022-12-22T07:20:00.278Z,4.02
2022-12-22T07:22:30.302Z,3.92
2022-12-22T07:24:57.682Z,4.13
2022-12-22T07:27:24.626Z,4.19
2022-12-22T07:29:51.491Z,4.25
2022-12-22T07:32:18.450Z,4.07
2022-12-22T07:34:45.461Z,4.16
2022-12-22T07:37:13.851Z,4.20
2022-12-22T07:39:41.228Z,4.29
2022-12-22T07:42:31.188Z,4.33
2022-12-22T07:44:58.121Z,4.46
2022-12-22T07:47:28.584Z,4.55
2022-12-22T07:50:18.610Z,4.56
2022-12-22T07:52:45.472Z,4.50
2022-12-22T07:55:12.443Z,4.50
2022-12-22T07:57:39.511Z,4.79
2022-12-22T08:00:07.234Z,4.95
2022-12-22T08:02:39.572Z,4.89
2022-12-22T08:05:08.095Z,5.10
2022-12-22T08:07:35.525Z,5.07
2022-12-22T08:10:02.674Z,5.05
2022-12-22T08:12:29.923Z,5.10
2022-12-22T08:14:56.952Z,5.31
2022-12-22T08:17:24.089Z,5.52
2022-12-22T08:19:51.048Z,5.53
2022-12-22T08:22:17.988Z,5.76
2022-12-22T08:24:44.892Z,5.98
2022-12-22T08:27:25.548Z,6.19
2022-12-22T08:29:57.651Z,6.42
2022-12-22T08:32:25.027Z,6.11
2022-12-22T08:34:54.043Z,6.04
2022-12-22T08:37:24.989Z,6.23
2022-12-22T08:39:56.231Z,6.44
2022-12-22T08:42:25.479Z,6.82
2022-12-22T08:44:53.592Z,6.87
2022-12-22T08:47:21.508Z,6.89
2022-12-22T08:49:49.875Z,6.91
2022-12-22T08:52:18.769Z,6.96
2022-12-22T08:54:46.672Z,7.14
2022-12-22T08:57:13.691Z,7.27
2022-12-22T08:59:40.545Z,6.95
2022-12-22T09:02:07.697Z,7.13
2022-12-22T09:04:35.154Z,7.00
2022-12-22T09:07:05.339Z,7.06
2022-12-22T09:09:33.534Z,7.00
2022-12-22T09:12:01.785Z,7.00
2022-12-22T09:14:29.463Z,7.15
2022-12-22T09:16:56.752Z,7.42
2022-12-22T09:19:23.944Z,7.67
2022-12-22T09:21:50.971Z,7.84
2022-12-22T09:24:18.751Z,7.97
2022-12-22T09:26:45.935Z,8.00
2022-12-22T09:29:15.775Z,8.29
2022-12-22T09:31:43.697Z,8.17
2022-12-22T09:34:17.083Z,7.95
2022-12-22T09:36:44.676Z,7.80
2022-12-22T09:39:11.650Z,7.94
2022-12-22T09:41:50.937Z,8.08
2022-12-22T09:44:37.237Z,8.16
2022-12-22T10:18:21.096Z,7.90
2022-12-22T10:21:08.781Z,8.30
2022-12-22T10:23:39.615Z,8.36
2022-12-22T10:26:28.023Z,8.46
2022-12-22T10:29:06.138Z,8.63
2022-12-22T10:31:35.199Z,8.65
2022-12-22T10:34:21.073Z,8.91
2022-12-22T10:36:50.950Z,8.85
2022-12-22T10:39:27.397Z,8.87
2022-12-22T10:42:00.464Z,8.95
2022-12-22T10:44:37.320Z,8.93
2022-12-22T10:47:24.338Z,8.98
2022-12-22T10:52:31.017Z,8.97
2022-12-22T10:55:21.955Z,9.11
2022-12-22T10:57:50.180Z,9.06
2022-12-22T11:00:29.791Z,8.94
2022-12-22T11:03:02.003Z,9.05
2022-12-22T11:05:29.792Z,8.95
2022-12-22T11:08:00.887Z,9.02
2022-12-22T11:10:50.945Z,8.62
2022-12-22T11:13:35.688Z,8.84
2022-12-22T11:16:14.790Z,8.80
2022-12-22T11:19:18.356Z,8.73
2022-12-22T11:21:54.436Z,8.78
2022-12-22T11:24:44.889Z,9.01
2022-12-22T11:27:44.045Z,8.98
2022-12-22T11:30:32.222Z,8.81
2022-12-22T11:33:26.808Z,8.70
2022-12-22T11:35:59.740Z,8.49
2022-12-22T11:38:46.950Z,8.46
2022-12-22T11:41:34.964Z,8.47
2022-12-22T11:44:11.401Z,8.37
2022-12-22T11:46:49.979Z,8.33
2022-12-22T11:49:35.761Z,8.41
2022-12-22T11:53:04.140Z,8.29
2022-12-22T11:55:40.663Z,8.22
2022-12-22T11:58:07.396Z,8.38
2022-12-22T12:01:13.600Z,8.47
2022-12-22T12:03:57.914Z,8.44
2022-12-22T12:06:31.224Z,8.37
2022-12-22T12:09:19.099Z,8.46
2022-12-22T12:11:51.841Z,8.50
2022-12-22T12:14:24.439Z,8.45
2022-12-22T12:17:19.196Z,8.57
2022-12-22T12:20:21.398Z,8.51
2022-12-22T12:22:57.059Z,8.66
2022-12-22T12:25:32.416Z,8.62
2022-12-22T12:28:14.964Z,8.68
2022-12-22T12:30:53.014Z,8.62
2022-12-22T12:33:25.997Z,8.57
2022-12-22T12:36:07.345Z,8.57
2022-12-22T12:39:08.716Z,8.61
2022-12-22T12:42:05.722Z,8.57
2022-12-22T12:44:36.287Z,8.43
2022-12-22T12:47:22.512Z,8.46
2022-12-22T12:50:15.138Z,8.45
2022-12-22T12:52:44.252Z,8.43
2022-12-22T12:55:53.756Z,8.44
2022-12-22T12:58:38.988Z,8.45
2022-12-22T13:01:27.633Z,8.41
2022-12-22T13:04:04.359Z,8.33
2022-12-22T13:06:49.757Z,8.22
2022-12-22T13:09:49.816Z,7.65
2022-12-22T13:12:33.700Z,8.18
2022-12-22T13:15:02.025Z,8.13
2022-12-22T13:17:48.941Z,8.22
2022-12-22T13:20:22.877Z,8.21
2022-12-22T13:22:53.587Z,8.31
2022-12-22T13:25:21.737Z,8.19
2022-12-22T13:27:50.019Z,8.26
2022-12-22T13:30:20.669Z,8.21
2022-12-22T13:32:50.386Z,8.15
2022-12-22T13:35:32.647Z,8.12
2022-12-22T13:38:00.545Z,8.04
2022-12-22T13:40:31.084Z,8.13
2022-12-22T13:43:03.555Z,8.10
2022-12-22T13:45:55.299Z,8.15
2022-12-22T13:48:24.855Z,8.11
2022-12-22T13:50:53.813Z,8.10
2022-12-22T13:56:20.965Z,8.10
2022-12-22T13:58:53.441Z,7.99
2022-12-22T14:01:20.861Z,7.98
2022-12-22T14:04:01.808Z,7.84
2022-12-22T14:06:37.987Z,7.72
2022-12-22T14:09:16.959Z,7.13
2022-12-22T14:11:51.967Z,7.75
2022-12-22T14:14:24.681Z,7.78
2022-12-22T14:16:54.833Z,7.59
2022-12-22T14:19:23.032Z,7.71
2022-12-22T14:22:01.407Z,7.74
2022-12-22T14:24:36.187Z,7.75
2022-12-22T14:27:05.096Z,7.65
2022-12-22T14:29:32.114Z,7.58
2022-12-22T14:32:02.981Z,7.36
2022-12-22T14:34:32.621Z,6.79
2022-12-22T14:37:01.217Z,7.13
2022-12-22T14:39:32.975Z,7.08
2022-12-22T14:42:02.717Z,7.08
2022-12-22T14:44:35.192Z,7.03
2022-12-22T14:47:20.102Z,6.94
2022-12-22T14:49:49.985Z,6.93
2022-12-22T14:52:39.490Z,6.88
2022-12-22T14:55:22.889Z,6.77
2022-12-22T14:58:13.993Z,6.81
2022-12-22T15:00:46.147Z,6.77
2022-12-22T15:03:25.065Z,6.54
2022-12-22T15:05:53.033Z,6.53
2022-12-22T15:08:38.765Z,6.58
2022-12-22T15:11:11.820Z,6.62
2022-12-22T15:13:39.188Z,6.47
2022-12-22T15:16:06.425Z,6.44
2022-12-22T15:18:33.636Z,6.48
2022-12-22T15:21:00.560Z,6.32
2022-12-22T15:23:27.605Z,6.40
2022-12-22T15:25:54.494Z,6.37
2022-12-22T15:28:21.447Z,6.30
2022-12-22T15:30:48.384Z,6.28
2022-12-22T15:33:17.644Z,6.18
2022-12-22T15:35:45.552Z,6.24
2022-12-22T15:38:15.051Z,6.22
2022-12-22T15:40:42.141Z,6.15
2022-12-22T15:43:17.560Z,6.16
2022-12-22T15:45:56.781Z,6.12
2022-12-22T15:48:30.924Z,6.10
2022-12-22T15:50:58.845Z,6.13
2022-12-22T15:53:26.030Z,6.08
2022-12-22T15:55:55.780Z,5.96
2022-12-22T15:58:26.195Z,5.97
2022-12-22T16:00:53.161Z,6.01
2022-12-22T16:03:20.456Z,6.11
2022-12-22T16:05:47.520Z,5.99
2022-12-22T16:08:20.408Z,5.96
2022-12-22T16:10:49.328Z,5.79
2022-12-22T16:13:17.513Z,5.94
2022-12-22T16:15:44.442Z,5.84
2022-12-22T16:18:12.772Z,5.79
2022-12-22T16:20:42.853Z,5.80
2022-12-22T16:23:20.453Z,5.80
2022-12-22T16:25:48.524Z,5.72
2022-12-22T16:28:22.837Z,5.72
2022-12-22T16:30:50.175Z,5.70
2022-12-22T16:33:17.614Z,5.68
2022-12-22T16:35:44.805Z,5.70
2022-12-22T16:38:18.273Z,5.66
2022-12-22T16:40:49.238Z,5.62
2022-12-22T16:46:08.560Z,5.57
2022-12-22T16:48:45.413Z,5.60
2022-12-22T16:51:18.250Z,5.58
2022-12-22T16:53:45.315Z,5.58
2022-12-22T16:56:21.725Z,5.64
2022-12-22T16:58:48.952Z,5.63
2022-12-22T17:01:20.898Z,5.59
2022-12-22T17:03:48.041Z,5.56
2022-12-22T17:06:15.000Z,5.60
2022-12-22T17:08:44.432Z,5.50
2022-12-22T17:11:22.036Z,5.52
2022-12-22T17:13:52.459Z,5.56
2022-12-22T17:16:23.532Z,5.61
2022-12-22T17:18:50.656Z,5.54
2022-12-22T17:21:19.522Z,5.56
2022-12-22T17:23:50.294Z,5.51
2022-12-22T17:26:24.765Z,5.44
2022-12-22T17:28:52.834Z,5.39
2022-12-22T17:31:21.430Z,5.33
2022-12-22T17:33:48.885Z,5.30
2022-12-22T17:36:37.336Z,5.32
2022-12-22T17:39:04.877Z,5.25
2022-12-22T17:41:32.701Z,5.27
2022-12-22T17:44:00.351Z,5.22
2022-12-22T17:46:27.559Z,5.15
2022-12-22T17:48:54.584Z,5.07
2022-12-22T17:51:25.155Z,5.02
2022-12-22T17:53:53.675Z,5.04
2022-12-22T17:56:23.489Z,4.99
2022-12-22T17:58:50.996Z,5.00
2022-12-22T18:01:23.417Z,4.96
2022-12-22T18:03:51.173Z,4.99
2022-12-22T18:06:19.964Z,4.93
2022-12-22T18:08:47.105Z,4.98
2022-12-22T18:11:14.457Z,4.92
2022-12-22T18:13:42.033Z,4.97
2022-12-22T18:16:15.051Z,5.12
2022-12-22T18:18:43.239Z,5.12
2022-12-22T18:21:24.807Z,5.07
2022-12-22T18:23:52.555Z,5.00
2022-12-22T18:26:25.842Z,5.05
2022-12-22T18:28:53.867Z,5.05
2022-12-22T18:31:22.680Z,5.03
2022-12-22T18:33:50.514Z,4.98
2022-12-22T18:36:19.993Z,5.10
2022-12-22T18:38:48.292Z,5.18
2022-12-22T18:41:21.076Z,5.08
2022-12-22T18:43:48.553Z,4.98
2022-12-22T18:46:15.645Z,4.88
2022-12-22T18:48:42.644Z,4.83
2022-12-22T18:51:19.554Z,4.73
2022-12-22T18:53:47.065Z,4.69
2022-12-22T18:56:14.562Z,4.61
2022-12-22T18:58:42.390Z,4.65
2022-12-22T19:01:27.495Z,4.55
2022-12-22T19:03:57.538Z,4.47
2022-12-22T19:06:24.682Z,4.49
2022-12-22T19:08:52.049Z,4.50
2022-12-22T19:11:24.855Z,4.48
2022-12-22T19:13:52.832Z,4.58
2022-12-22T19:16:25.641Z,4.60
2022-12-22T19:18:52.696Z,4.60
2022-12-22T19:21:20.453Z,4.63
2022-12-22T19:23:48.355Z,4.69
2022-12-22T19:26:22.802Z,4.23
2022-12-22T19:28:54.268Z,4.57
2022-12-22T19:31:24.854Z,4.49
2022-12-22T19:33:52.905Z,4.06
2022-12-22T19:36:25.769Z,3.52
2022-12-22T19:39:05.560Z,3.15
2022-12-22T19:41:37.237Z,3.70
2022-12-22T19:44:05.048Z,3.37
2022-12-22T19:46:34.883Z,3.65
2022-12-22T19:49:01.831Z,3.74
2022-12-22T19:51:31.484Z,3.47
2022-12-22T19:53:58.489Z,3.47
2022-12-22T19:56:28.230Z,3.75
2022-12-22T19:58:56.598Z,3.82
2022-12-22T20:01:23.534Z,3.38
2022-12-22T20:03:50.575Z,2.90
2022-12-22T20:06:17.860Z,2.92
2022-12-22T20:08:45.052Z,3.31
2022-12-22T20:11:19.722Z,3.31
2022-12-22T20:13:48.005Z,3.01
2022-12-22T20:16:17.256Z,2.78
2022-12-22T20:18:46.377Z,3.12
2022-12-22T20:21:29.568Z,2.79
2022-12-22T20:24:00.502Z,2.69
2022-12-22T20:26:27.982Z,2.70
2022-12-22T20:28:55.157Z,2.91
2022-12-22T20:31:24.159Z,2.87
2022-12-22T20:33:54.951Z,3.21
2022-12-22T20:36:23.345Z,3.18
2022-12-22T20:38:52.557Z,3.47
2022-12-22T20:41:21.330Z,3.20
2022-12-22T20:43:49.137Z,3.63
2022-12-22T20:46:28.011Z,3.70
2022-12-22T20:49:00.890Z,3.04
2022-12-22T20:51:30.923Z,3.17
2022-12-22T20:53:58.934Z,3.01
2022-12-22T20:56:35.081Z,2.76
2022-12-22T20:59:12.631Z,2.71
2022-12-22T21:01:39.794Z,2.70
2022-12-22T21:04:06.990Z,3.14
2022-12-22T21:06:37.567Z,2.64
2022-12-22T21:09:04.772Z,3.06
2022-12-22T21:11:31.904Z,2.72
2022-12-22T21:13:59.453Z,2.81
2022-12-22T21:16:30.718Z,2.72
2022-12-22T21:18:58.268Z,2.44
2022-12-22T21:21:25.260Z,1.99
2022-12-22T21:23:52.252Z,2.15
2022-12-22T21:26:30.498Z,2.55
2022-12-22T21:28:58.955Z,2.84
2022-12-22T21:31:25.912Z,3.01
2022-12-22T21:33:52.904Z,3.17
2022-12-22T21:36:26.023Z,2.92
2022-12-22T21:38:56.209Z,3.11
2022-12-22T21:41:41.532Z,2.44
2022-12-22T21:44:09.436Z,2.33
2022-12-22T21:46:36.523Z,2.24
2022-12-22T21:49:03.499Z,2.27
2022-12-22T21:51:30.562Z,2.05
2022-12-22T21:53:57.523Z,1.88
2022-12-22T21:56:24.378Z,1.57
2022-12-22T21:58:51.243Z,1.62
2022-12-22T22:01:18.179Z,1.78
2022-12-22T22:03:45.124Z,1.98
2022-12-22T22:06:12.011Z,1.99
2022-12-22T22:08:39.009Z,2.17
2022-12-22T22:11:17.084Z,2.33
2022-12-22T22:13:43.961Z,2.27
2022-12-22T22:16:10.991Z,2.27
2022-12-22T22:18:38.514Z,2.55
2022-12-22T22:21:08.663Z,2.52
2022-12-22T22:23:36.340Z,2.62
2022-12-22T22:26:04.696Z,2.72
2022-12-22T22:28:32.232Z,2.80
2022-12-22T22:30:59.874Z,2.88
2022-12-22T22:33:26.932Z,2.53
2022-12-22T22:35:54.110Z,2.96
2022-12-22T22:38:21.857Z,2.84
2022-12-22T22:40:49.399Z,2.82
2022-12-22T22:43:16.295Z,2.45
2022-12-22T22:45:43.470Z,2.48
2022-12-22T22:48:20.025Z,2.11
2022-12-22T22:50:47.223Z,1.82
2022-12-22T22:53:14.685Z,1.69
2022-12-22T22:55:41.634Z,2.05
2022-12-22T22:58:11.547Z,2.18
2022-12-22T23:00:39.215Z,2.22
2022-12-22T23:03:06.713Z,2.52
2022-12-22T23:05:33.937Z,2.85
2022-12-22T23:08:00.845Z,2.75
2022-12-22T23:10:27.767Z,2.65
2022-12-22T23:12:55.224Z,2.73
2022-12-22T23:15:22.121Z,2.64
2022-12-22T23:17:51.683Z,2.73
2022-12-22T23:20:18.674Z,2.54
2022-12-22T23:22:45.563Z,2.47
2022-12-22T23:25:12.486Z,2.65
2022-12-22T23:27:39.374Z,2.85
2022-12-22T23:30:07.476Z,3.15
2022-12-22T23:32:34.453Z,2.88
2022-12-22T23:35:01.300Z,3.15
2022-12-22T23:37:28.646Z,2.74
2022-12-22T23:39:56.168Z,2.94
2022-12-22T23:42:28.744Z,3.08
2022-12-22T23:44:55.647Z,2.93
2022-12-22T23:47:22.503Z,3.19
2022-12-22T23:49:49.415Z,3.17
2022-12-22T23:52:16.408Z,2.90
2022-12-22T23:54:43.279Z,2.78
2022-12-22T23:57:10.169Z,2.98
2022-12-22T23:59:37.122Z,3.08
